Aérodrome :
LOGIN :

S'inscrire | Disclaimer

   EN    FR    IT 

 










Légende :    VFR   VFR Marginal   IFR   IFR Intensif   IFR Très Intensif
Visi : 
Plafond : 
>= 8 km
>= 3000ft
5 à 8 km
1000 à 3000 ft
1500m à 5 km
500 à 1000 ft
800 à 1500m
200 à 500 ft
< 800m
< 200 ft
Symboles :   Orages  Brouillard  Fortes neiges  Fortes précipitations  Vent > 20 kt
SIGMETs :   Divers  Orages  Givrage  Turbulence  Onde Orograph.  Cendres Volcan.






- Altitude de l'aérodrome : 870 ft
- Code IATA : ETZ


LFJL - Metz Nancy Lorraine

DERNIER METAR :
  • 110330Z AUTO 35003KT 1800 1300 R22/1600D R04/1400U -RA BR FEW032/// SCT042/// BKN064/// ///TCU 10/10 Q1009 TEMPO 4000 SHRA VV///

METARs EXPIRÉS :
  • 110300Z AUTO VRB02KT 1000 0400 R22/P2000 R04/0550N BCFG FEW001/// OVC090/// ///TCU 10/09 Q1009 TEMPO BKN010 BECMG 9999 NSW
  • 110230Z AUTO VRB03KT 9999 FEW002 BKN100 BKN120 10/09 Q1009 TEMPO BKN010
  • 110200Z AUTO 16005KT 9000 NSC 10/10 Q1009 TEMPO BKN010
  • 110130Z AUTO 19002KT 8000 FEW026 BKN150 OVC170 09/09 Q1009 TEMPO BKN010
  • 110100Z AUTO VRB02KT 9000 FEW023/// BKN110/// BKN130/// ///TCU 10/09 Q1009 TEMPO BKN010

TAF AMD TAF LFJL
Valide du 11 à 03h jusqu'au 12 à 00h UTC


110312Z 1103/1124 15005KT 9999 SCT050
TEMPO 1103/1105 0500 FG VV///
TEMPO 1105/1114 4000 SHRA BKN014 SCT030TCU
TEMPO 1114/1118 28015G25KT 4000 SHRA SCT030CB



MET'MAP, la Météo Aéronautique d'un coup d'oeil ! - Copyright ORBIFLY Décembre 2007 - Disclaimer

ORBIFLY MET'MAP TEAM :

Programmation & Développement : Alexandra Zaïnal
Sur une idée originale de : Baudouin d'Aumeries
Assistance à la programmation : Marc-Olivier Méhu
Soutien technique & logistique : Manuel Goepfert

Contact : metmap@orbifly.com




SOURCES & CREDITS :

   NOAA